RWD711 EGLL-HRYR

Flight info

Callsign RWD711
Flight time 8h 2m
Altitude 35000
Route MODMI M185 MID UL612 VEULE DCT DEKOD UN857 DISAK DCT DIRMO DCT ETAMO DCT ADEKA DCT MOKDI DCT MEN DCT AMLIR/N0470F370 DCT FJR DCT DIVKO DCT JUSQO DCT FIRRA DCT SUXER DCT KAMER UM998 CSO UM2 NAGAH/N0470F390 UM2 DJA UB730 DIR UG862 SOPOG UT139 ASKON DCT JUB DCT ATUGA/N0473F400 DCT OKTEX UL432 ALSAR ALSAR1B
Aircraft A333/H-SDE3GHIJ2J3J5M1RVWXY/LB2D1

Departure

Time 2026-04-07 08:17
Airport London Heathrow Airport (EGLL)

Arrival

Time 2026-04-07 16:19
Airport Kigali International Airport (HRYR)
Time Latitude Longitude Altitude Speed Heading
2026-04-07 07:48 51.46185 -0.44150 89 ft 0 kts 112°
2026-04-07 08:04 51.46189 -0.44167 94 ft 3 kts 113°
2026-04-07 08:04 51.46197 -0.44197 91 ft 3 kts 113°
2026-04-07 08:04 51.46205 -0.44226 90 ft 3 kts 110°
2026-04-07 08:04 51.46209 -0.44254 91 ft 3 kts 74°
2026-04-07 08:05 51.46201 -0.44276 89 ft 2 kts 27°
2026-04-07 08:05 51.46191 -0.44284 92 ft 2 kts 23°
2026-04-07 08:05 51.46173 -0.44296 89 ft 2 kts 23°
2026-04-07 08:05 51.46170 -0.44299 92 ft 0 kts 23°
2026-04-07 08:07 51.46182 -0.44290 90 ft 5 kts 23°
2026-04-07 08:07 51.46220 -0.44264 94 ft 7 kts 23°
2026-04-07 08:08 51.46276 -0.44226 95 ft 9 kts 21°
2026-04-07 08:08 51.46321 -0.44255 95 ft 7 kts 299°
2026-04-07 08:08 51.46327 -0.44366 94 ft 13 kts 270°
2026-04-07 08:08 51.46326 -0.44530 94 ft 16 kts 269°
2026-04-07 08:09 51.46318 -0.44703 93 ft 16 kts 271°
2026-04-07 08:09 51.46317 -0.44871 93 ft 15 kts 270°
2026-04-07 08:09 51.46317 -0.45038 93 ft 15 kts 270°
2026-04-07 08:09 51.46317 -0.45206 93 ft 15 kts 270°
2026-04-07 08:10 51.46316 -0.45378 93 ft 16 kts 270°
2026-04-07 08:10 51.46316 -0.45550 93 ft 16 kts 271°
2026-04-07 08:10 51.46324 -0.45735 90 ft 18 kts 270°
2026-04-07 08:10 51.46324 -0.45932 90 ft 18 kts 270°
2026-04-07 08:11 51.46324 -0.46130 93 ft 18 kts 270°
2026-04-07 08:11 51.46323 -0.46329 93 ft 18 kts 269°
2026-04-07 08:11 51.46321 -0.46530 92 ft 18 kts 269°
2026-04-07 08:11 51.46321 -0.46732 92 ft 18 kts 275°
2026-04-07 08:12 51.46322 -0.46929 90 ft 18 kts 269°
2026-04-07 08:12 51.46322 -0.47125 92 ft 18 kts 269°
2026-04-07 08:12 51.46320 -0.47316 94 ft 16 kts 271°
2026-04-07 08:12 51.46339 -0.47475 94 ft 15 kts 271°
2026-04-07 08:13 51.46330 -0.47653 96 ft 16 kts 248°
2026-04-07 08:13 51.46271 -0.47815 93 ft 17 kts 240°
2026-04-07 08:13 51.46254 -0.47908 95 ft 16 kts 263°
2026-04-07 08:14 51.46251 -0.47987 93 ft 16 kts 269°
2026-04-07 08:14 51.46251 -0.48197 90 ft 20 kts 269°
2026-04-07 08:14 51.46249 -0.48428 89 ft 21 kts 270°
2026-04-07 08:14 51.46262 -0.48624 94 ft 14 kts 291°
2026-04-07 08:15 51.46329 -0.48726 93 ft 13 kts 331°
2026-04-07 08:15 51.46416 -0.48750 92 ft 13 kts 360°
2026-04-07 08:15 51.46476 -0.48679 93 ft 9 kts 73°
2026-04-07 08:15 51.46479 -0.48622 93 ft 0 kts 89°
2026-04-07 08:16 51.46480 -0.48067 91 ft 74 kts 90°
2026-04-07 08:16 51.46484 -0.46955 96 ft 126 kts 89°
2026-04-07 08:16 51.46488 -0.45289 205 ft 165 kts 89°
2026-04-07 08:17 51.46476 -0.43336 736 ft 180 kts 91°
2026-04-07 08:17 51.46276 -0.41429 1758 ft 165 kts 114°
2026-04-07 08:17 51.45739 -0.39817 2395 ft 169 kts 124°
2026-04-07 08:17 51.44910 -0.38321 2635 ft 192 kts 146°
2026-04-07 08:18 51.43610 -0.37415 2866 ft 216 kts 161°
2026-04-07 08:18 51.42074 -0.36743 3092 ft 238 kts 164°
2026-04-07 08:18 51.40433 -0.36191 3585 ft 249 kts 174°
2026-04-07 08:18 51.38700 -0.36572 4207 ft 256 kts 198°
2026-04-07 08:19 51.37058 -0.37722 4906 ft 258 kts 205°
2026-04-07 08:19 51.35439 -0.39009 5542 ft 261 kts 206°
2026-04-07 08:19 51.34360 -0.39870 5890 ft 262 kts 206°
2026-04-07 08:19 51.32718 -0.41170 6412 ft 264 kts 206°
2026-04-07 08:20 51.31061 -0.42482 6931 ft 266 kts 207°
2026-04-07 08:20 51.28859 -0.44220 7586 ft 268 kts 206°
2026-04-07 08:20 51.27727 -0.45118 7961 ft 270 kts 206°
2026-04-07 08:20 51.26036 -0.46467 8661 ft 273 kts 206°
2026-04-07 08:21 51.24333 -0.47828 9369 ft 275 kts 206°
2026-04-07 08:21 51.22633 -0.49174 10089 ft 277 kts 205°
2026-04-07 08:21 51.20885 -0.50541 10578 ft 286 kts 205°
2026-04-07 08:21 51.19039 -0.51971 10830 ft 303 kts 205°
2026-04-07 08:22 51.17086 -0.53479 11066 ft 320 kts 205°
2026-04-07 08:22 51.15020 -0.55071 11275 ft 337 kts 205°
2026-04-07 08:22 51.12856 -0.56742 11501 ft 353 kts 205°
2026-04-07 08:22 51.10605 -0.58471 11889 ft 363 kts 203°
2026-04-07 08:23 51.08208 -0.59803 12438 ft 366 kts 192°
2026-04-07 08:23 51.05668 -0.60230 13055 ft 368 kts 178°
2026-04-07 08:23 51.03180 -0.59531 13662 ft 371 kts 161°
2026-04-07 08:23 51.00811 -0.57806 14257 ft 375 kts 152°
2026-04-07 08:24 50.98565 -0.55671 14774 ft 378 kts 148°
2026-04-07 08:24 50.96376 -0.53321 15318 ft 382 kts 146°
2026-04-07 08:24 50.94197 -0.50875 15828 ft 385 kts 146°
2026-04-07 08:24 50.92003 -0.48407 16347 ft 388 kts 146°
2026-04-07 08:25 50.89777 -0.45937 16837 ft 391 kts 146°
2026-04-07 08:25 50.87527 -0.43485 17351 ft 394 kts 147°
2026-04-07 08:25 50.85255 -0.41046 17837 ft 397 kts 147°
2026-04-07 08:25 50.82979 -0.38624 18321 ft 400 kts 147°
2026-04-07 08:26 50.80653 -0.36165 18778 ft 403 kts 148°
2026-04-07 08:26 50.78313 -0.33700 19187 ft 405 kts 148°
2026-04-07 08:26 50.75962 -0.31225 19595 ft 408 kts 148°
2026-04-07 08:26 50.73586 -0.28726 20009 ft 410 kts 148°
2026-04-07 08:27 50.71201 -0.26220 20417 ft 413 kts 148°
2026-04-07 08:27 50.68802 -0.23700 20820 ft 415 kts 148°
2026-04-07 08:27 50.66388 -0.21166 21214 ft 417 kts 148°
2026-04-07 08:27 50.63962 -0.18623 21609 ft 420 kts 148°
2026-04-07 08:28 50.61525 -0.16071 22032 ft 421 kts 148°
2026-04-07 08:28 50.59103 -0.13538 22407 ft 424 kts 148°
2026-04-07 08:28 50.56634 -0.10959 22784 ft 426 kts 148°
2026-04-07 08:28 50.54155 -0.08374 23165 ft 429 kts 149°
2026-04-07 08:29 50.51657 -0.05771 23547 ft 431 kts 149°
2026-04-07 08:29 50.49150 -0.03163 23897 ft 433 kts 149°
2026-04-07 08:29 50.46624 -0.00538 24212 ft 435 kts 149°
2026-04-07 08:29 50.44131 0.02050 24625 ft 434 kts 149°
2026-04-07 08:30 50.41603 0.04672 24972 ft 436 kts 149°
2026-04-07 08:30 50.39069 0.07295 25329 ft 437 kts 149°
2026-04-07 08:30 50.36522 0.09927 25632 ft 439 kts 149°
2026-04-07 08:30 50.33959 0.12573 25947 ft 441 kts 149°
2026-04-07 08:31 50.31391 0.15219 26242 ft 443 kts 149°
2026-04-07 08:31 50.28847 0.17838 26556 ft 444 kts 149°
2026-04-07 08:31 50.26255 0.20503 26868 ft 446 kts 149°
2026-04-07 08:31 50.23660 0.23169 27160 ft 448 kts 149°
2026-04-07 08:32 50.21045 0.25851 27458 ft 450 kts 149°
2026-04-07 08:32 50.18421 0.28545 27757 ft 451 kts 149°
2026-04-07 08:32 50.15792 0.31248 28101 ft 452 kts 149°
2026-04-07 08:32 50.13154 0.33960 28391 ft 454 kts 149°
2026-04-07 08:33 50.10509 0.36675 28678 ft 456 kts 149°
2026-04-07 08:33 50.07884 0.39368 28946 ft 458 kts 149°
2026-04-07 08:33 50.05218 0.42097 29313 ft 457 kts 149°
2026-04-07 08:33 50.02557 0.44819 29745 ft 456 kts 149°
2026-04-07 08:34 49.99903 0.47529 30032 ft 457 kts 149°
2026-04-07 08:34 49.97238 0.50245 30331 ft 458 kts 149°
2026-04-07 08:34 49.94576 0.52954 30712 ft 455 kts 149°
2026-04-07 08:34 49.91960 0.55615 31085 ft 454 kts 149°
2026-04-07 08:35 49.89318 0.58296 31409 ft 453 kts 149°
2026-04-07 08:35 49.86675 0.60975 31703 ft 452 kts 149°
2026-04-07 08:35 49.84030 0.63621 32014 ft 452 kts 149°
2026-04-07 08:35 49.81382 0.66223 32333 ft 451 kts 150°
2026-04-07 08:36 49.78724 0.68807 32642 ft 450 kts 150°
2026-04-07 08:36 49.76069 0.71378 32938 ft 449 kts 150°
2026-04-07 08:36 49.73417 0.73943 33240 ft 449 kts 150°
2026-04-07 08:36 49.70778 0.76495 33552 ft 447 kts 150°
2026-04-07 08:37 49.68187 0.79002 33838 ft 447 kts 150°
2026-04-07 08:37 49.65544 0.81557 34098 ft 446 kts 150°
2026-04-07 08:37 49.62912 0.84101 34352 ft 446 kts 150°
2026-04-07 08:37 49.60285 0.86638 34579 ft 445 kts 150°
2026-04-07 08:38 49.57661 0.89167 34804 ft 444 kts 150°
2026-04-07 08:38 49.55038 0.91694 34988 ft 445 kts 150°
2026-04-07 08:38 49.52404 0.94227 35176 ft 445 kts 150°
2026-04-07 08:39 49.47127 0.99292 35233 ft 447 kts 150°
2026-04-07 08:39 49.41851 1.04343 35238 ft 446 kts 150°
2026-04-07 08:40 49.36612 1.09347 35238 ft 446 kts 150°
2026-04-07 08:40 49.31324 1.14384 35239 ft 446 kts 150°
2026-04-07 08:41 49.26037 1.19407 35235 ft 446 kts 150°
2026-04-07 08:41 49.20790 1.24379 35214 ft 446 kts 150°
2026-04-07 08:42 49.15561 1.29322 35212 ft 446 kts 150°
2026-04-07 08:42 49.10231 1.34348 35209 ft 446 kts 150°
2026-04-07 08:43 49.04964 1.39302 35211 ft 447 kts 150°
2026-04-07 08:43 48.99664 1.44275 35214 ft 447 kts 150°
2026-04-07 08:44 48.94365 1.49234 35215 ft 447 kts 150°
2026-04-07 08:44 48.89062 1.54184 35213 ft 447 kts 150°
2026-04-07 08:45 48.83754 1.59125 35222 ft 447 kts 150°
2026-04-07 08:45 48.78447 1.64054 35216 ft 447 kts 150°
2026-04-07 08:46 48.73168 1.68944 35222 ft 447 kts 150°
2026-04-07 08:46 48.67856 1.73853 35209 ft 447 kts 150°
2026-04-07 08:47 48.62541 1.78752 35216 ft 448 kts 149°
2026-04-07 08:47 48.57213 1.83651 35216 ft 448 kts 149°
2026-04-07 08:48 48.51883 1.88540 35219 ft 448 kts 150°
2026-04-07 08:48 48.46582 1.93390 35216 ft 448 kts 150°
2026-04-07 08:49 48.41246 1.98260 35214 ft 448 kts 150°
2026-04-07 08:49 48.35921 2.03108 35205 ft 447 kts 150°
2026-04-07 08:50 48.30559 2.07808 35214 ft 446 kts 155°
2026-04-07 08:50 48.24689 2.10704 35206 ft 445 kts 169°
2026-04-07 08:51 48.18569 2.12207 35208 ft 445 kts 172°
2026-04-07 08:51 48.12448 2.13223 35200 ft 445 kts 176°
2026-04-07 08:52 48.06236 2.13641 35204 ft 448 kts 177°
2026-04-07 08:52 47.99995 2.13980 35214 ft 448 kts 177°
2026-04-07 08:53 47.93749 2.14325 35207 ft 448 kts 177°
2026-04-07 08:53 47.87516 2.14684 35204 ft 448 kts 177°
2026-04-07 08:54 47.81274 2.15049 35213 ft 448 kts 177°
2026-04-07 08:54 47.75074 2.15413 35174 ft 448 kts 177°
2026-04-07 08:55 47.68844 2.15776 35171 ft 448 kts 177°
2026-04-07 08:55 47.62611 2.16138 35173 ft 448 kts 177°
2026-04-07 08:56 47.56377 2.16499 35174 ft 448 kts 177°
2026-04-07 08:56 47.50182 2.16857 35176 ft 447 kts 177°
2026-04-07 08:57 47.43960 2.17216 35166 ft 447 kts 177°
2026-04-07 08:57 47.37736 2.17574 35166 ft 447 kts 177°
2026-04-07 08:58 47.31521 2.17931 35165 ft 447 kts 177°
2026-04-07 08:58 47.25293 2.18288 35166 ft 447 kts 177°
2026-04-07 08:59 47.19116 2.18641 35162 ft 447 kts 177°
2026-04-07 08:59 47.12896 2.19000 35167 ft 448 kts 175°
2026-04-07 09:00 47.06719 2.20656 35175 ft 455 kts 161°
2026-04-07 09:00 47.00734 2.23869 35176 ft 458 kts 158°
2026-04-07 09:01 46.94819 2.27371 35183 ft 457 kts 158°
2026-04-07 09:01 46.88956 2.30856 35182 ft 458 kts 158°
2026-04-07 09:02 46.83170 2.34749 35178 ft 458 kts 150°
2026-04-07 09:02 46.77750 2.39660 35173 ft 458 kts 148°
2026-04-07 09:03 46.72412 2.44757 35178 ft 459 kts 147°
2026-04-07 09:03 46.67079 2.49875 35168 ft 459 kts 147°
2026-04-07 09:04 46.61730 2.54967 35169 ft 459 kts 147°
2026-04-07 09:04 46.56371 2.60037 35171 ft 459 kts 147°
2026-04-07 09:05 46.51005 2.65099 35180 ft 459 kts 147°
2026-04-07 09:05 46.45687 2.70102 35169 ft 459 kts 147°
2026-04-07 09:06 46.40317 2.75145 35182 ft 459 kts 147°
2026-04-07 09:06 46.34951 2.80172 35185 ft 459 kts 147°
2026-04-07 09:07 46.29573 2.85199 35182 ft 460 kts 147°
2026-04-07 09:07 46.25060 2.89407 35188 ft 461 kts 147°
2026-04-07 09:08 46.19705 2.94391 35190 ft 461 kts 147°
2026-04-07 09:08 46.14309 2.99400 35194 ft 461 kts 147°
2026-04-07 09:09 46.08904 3.04405 35194 ft 460 kts 147°
2026-04-07 09:09 46.03539 3.09362 35205 ft 460 kts 147°
2026-04-07 09:10 45.98095 3.14231 35206 ft 460 kts 152°
2026-04-07 09:10 45.92067 3.17374 35210 ft 463 kts 168°
2026-04-07 09:11 45.85618 3.18047 35214 ft 467 kts 178°
2026-04-07 09:11 45.79143 3.17957 35206 ft 468 kts 179°
2026-04-07 09:12 45.72650 3.17770 35219 ft 468 kts 179°
2026-04-07 09:12 45.66129 3.17632 35197 ft 468 kts 179°
2026-04-07 09:13 45.59643 3.17535 35205 ft 469 kts 178°
2026-04-07 09:13 45.53122 3.17451 35199 ft 469 kts 178°
2026-04-07 09:14 45.46574 3.17367 35205 ft 469 kts 178°
2026-04-07 09:14 45.40083 3.17483 35210 ft 468 kts 172°
2026-04-07 09:15 45.33796 3.19600 35218 ft 463 kts 156°
2026-04-07 09:15 45.27940 3.23450 35209 ft 464 kts 152°
2026-04-07 09:16 45.22188 3.27674 35211 ft 464 kts 151°
2026-04-07 09:16 45.16492 3.31874 35210 ft 464 kts 152°
2026-04-07 09:17 45.10721 3.36062 35210 ft 465 kts 152°
2026-04-07 09:17 45.04945 3.40207 35210 ft 466 kts 152°
2026-04-07 09:18 44.99146 3.44352 35217 ft 466 kts 152°
2026-04-07 09:18 44.90496 3.50521 35215 ft 466 kts 152°
2026-04-07 09:19 44.84697 3.54649 35220 ft 466 kts 152°
2026-04-07 09:19 44.78935 3.58741 35228 ft 466 kts 152°
2026-04-07 09:20 44.73136 3.62849 35224 ft 466 kts 152°
2026-04-07 09:20 44.67333 3.66951 35228 ft 466 kts 152°
2026-04-07 09:21 44.61532 3.71041 35232 ft 466 kts 152°
2026-04-07 09:21 44.55764 3.75100 35233 ft 466 kts 152°
2026-04-07 09:22 44.49953 3.79180 35236 ft 467 kts 152°
2026-04-07 09:22 44.44146 3.83247 35249 ft 466 kts 152°
2026-04-07 09:23 44.38335 3.87311 35261 ft 466 kts 152°
2026-04-07 09:23 44.32570 3.91332 35262 ft 466 kts 152°
2026-04-07 09:24 44.26752 3.95381 35264 ft 468 kts 152°
2026-04-07 09:24 44.20900 3.99442 35279 ft 468 kts 152°
2026-04-07 09:25 44.15065 4.03484 35284 ft 468 kts 152°
2026-04-07 09:25 44.09249 4.07505 35282 ft 470 kts 152°
2026-04-07 09:26 44.03375 4.11556 35284 ft 471 kts 152°
2026-04-07 09:26 43.97503 4.15596 35290 ft 471 kts 152°
2026-04-07 09:27 43.91635 4.19625 35295 ft 472 kts 151°
2026-04-07 09:27 43.85733 4.23667 35291 ft 473 kts 152°
2026-04-07 09:28 43.79824 4.27707 35293 ft 473 kts 152°
2026-04-07 09:28 43.73950 4.31715 35298 ft 473 kts 152°
2026-04-07 09:29 43.68021 4.35749 35293 ft 475 kts 152°
2026-04-07 09:29 43.62073 4.39788 35291 ft 476 kts 152°
2026-04-07 09:30 43.56129 4.43816 35289 ft 476 kts 152°
2026-04-07 09:30 43.50215 4.47814 35284 ft 477 kts 152°
2026-04-07 09:31 43.44212 4.51864 35284 ft 478 kts 152°
2026-04-07 09:31 43.38243 4.55881 35285 ft 478 kts 152°
2026-04-07 09:32 43.32309 4.59865 35288 ft 478 kts 152°
2026-04-07 09:32 43.26317 4.63881 35284 ft 480 kts 152°
2026-04-07 09:33 43.20303 4.67903 35284 ft 480 kts 152°
2026-04-07 09:33 43.14294 4.71912 35281 ft 480 kts 152°
2026-04-07 09:34 43.08302 4.75902 35282 ft 482 kts 152°
2026-04-07 09:34 43.02034 4.79281 35281 ft 485 kts 159°
2026-04-07 09:35 42.95628 4.82202 35281 ft 486 kts 160°
2026-04-07 09:35 42.89187 4.85040 35279 ft 486 kts 161°
2026-04-07 09:36 42.82762 4.87869 35283 ft 488 kts 160°
2026-04-07 09:36 42.76293 4.90728 35281 ft 488 kts 160°
2026-04-07 09:37 42.69780 4.93350 35281 ft 489 kts 165°
2026-04-07 09:37 42.63131 4.95447 35297 ft 489 kts 166°
2026-04-07 09:38 42.56484 4.97450 35279 ft 489 kts 166°
2026-04-07 09:38 42.49880 4.99490 35280 ft 489 kts 166°
2026-04-07 09:39 42.43229 5.01582 35276 ft 492 kts 166°
2026-04-07 09:39 42.36556 5.03687 35281 ft 493 kts 166°
2026-04-07 09:40 42.29876 5.05789 35279 ft 493 kts 166°
2026-04-07 09:40 42.23184 5.07888 35279 ft 494 kts 167°
2026-04-07 09:41 42.16515 5.09975 35279 ft 494 kts 167°
2026-04-07 09:41 42.09817 5.12066 35276 ft 494 kts 167°
2026-04-07 09:42 42.03101 5.14158 35277 ft 495 kts 168°
2026-04-07 09:42 41.96407 5.16239 35279 ft 496 kts 168°
2026-04-07 09:43 41.89670 5.18328 35279 ft 496 kts 168°
2026-04-07 09:43 41.82926 5.20416 35276 ft 496 kts 168°
2026-04-07 09:44 41.76182 5.22499 35276 ft 497 kts 168°
2026-04-07 09:44 41.69479 5.24564 35276 ft 497 kts 168°
2026-04-07 09:45 41.62750 5.26720 35273 ft 497 kts 166°
2026-04-07 09:45 41.56099 5.29352 35276 ft 498 kts 164°
2026-04-07 09:46 41.49512 5.32105 35276 ft 499 kts 164°
2026-04-07 09:46 41.42886 5.34833 35268 ft 498 kts 165°
2026-04-07 09:47 41.36241 5.37521 35275 ft 498 kts 165°
2026-04-07 09:47 41.29585 5.40192 35273 ft 499 kts 165°
2026-04-07 09:48 41.22981 5.42835 35273 ft 499 kts 165°
2026-04-07 09:48 41.16334 5.45493 35277 ft 498 kts 165°
2026-04-07 09:49 41.09684 5.48147 35272 ft 498 kts 165°
2026-04-07 09:49 41.03044 5.50792 35271 ft 498 kts 165°
2026-04-07 09:50 40.96391 5.53436 35270 ft 498 kts 165°
2026-04-07 09:50 40.89798 5.56051 35268 ft 497 kts 165°
2026-04-07 09:51 40.83159 5.58678 35268 ft 497 kts 165°
2026-04-07 09:51 40.76529 5.61296 35256 ft 497 kts 165°
2026-04-07 09:52 40.69943 5.63892 35271 ft 496 kts 165°
2026-04-07 09:52 40.63335 5.66490 35268 ft 496 kts 165°
2026-04-07 09:53 40.56718 5.69087 35268 ft 496 kts 165°
2026-04-07 09:53 40.50097 5.71681 35270 ft 496 kts 166°
2026-04-07 09:54 40.43486 5.74264 35268 ft 495 kts 166°
2026-04-07 09:54 40.36917 5.76827 35265 ft 495 kts 166°
2026-04-07 09:55 40.30308 5.79399 35264 ft 495 kts 166°
2026-04-07 09:55 40.23700 5.81966 35263 ft 495 kts 166°
2026-04-07 09:56 40.18218 5.84092 35262 ft 495 kts 166°
2026-04-07 09:56 40.11557 5.86243 35263 ft 492 kts 172°
2026-04-07 09:57 40.04806 5.87738 35262 ft 491 kts 173°
2026-04-07 09:57 39.98067 5.89102 35263 ft 490 kts 173°
2026-04-07 09:58 39.91307 5.90457 35260 ft 490 kts 173°
2026-04-07 09:58 39.84563 5.91821 35256 ft 490 kts 173°
2026-04-07 09:59 39.77832 5.93190 35257 ft 489 kts 173°
2026-04-07 09:59 39.71148 5.94548 35259 ft 489 kts 173°
2026-04-07 10:00 39.64424 5.95911 35248 ft 489 kts 173°
2026-04-07 10:00 39.57701 5.97271 35259 ft 488 kts 173°
2026-04-07 10:01 39.50979 5.98628 35255 ft 488 kts 173°
2026-04-07 10:01 39.44261 5.99981 35254 ft 488 kts 173°
2026-04-07 10:02 39.37544 6.01331 35246 ft 488 kts 173°
2026-04-07 10:02 39.30837 6.02677 35250 ft 488 kts 173°
2026-04-07 10:03 39.24152 6.04016 35253 ft 488 kts 173°
2026-04-07 10:03 39.17423 6.05361 35246 ft 488 kts 173°
2026-04-07 10:04 39.10711 6.06700 35252 ft 488 kts 173°
2026-04-07 10:04 39.04040 6.08028 35253 ft 488 kts 173°
2026-04-07 10:05 38.97328 6.09363 35254 ft 488 kts 173°
2026-04-07 10:05 38.90615 6.10699 35252 ft 488 kts 173°
2026-04-07 10:06 38.83899 6.12034 35254 ft 488 kts 173°
2026-04-07 10:06 38.77184 6.13366 35253 ft 488 kts 173°
2026-04-07 10:07 38.70475 6.14694 35249 ft 487 kts 173°
2026-04-07 10:07 38.63770 6.16018 35249 ft 488 kts 173°
2026-04-07 10:08 38.57102 6.17333 35250 ft 488 kts 173°
2026-04-07 10:08 38.50393 6.18653 35248 ft 488 kts 173°
2026-04-07 10:09 38.43677 6.19972 35249 ft 488 kts 172°
2026-04-07 10:09 38.36959 6.21290 35250 ft 488 kts 173°
2026-04-07 10:10 38.30249 6.22603 35250 ft 488 kts 173°
2026-04-07 10:10 38.23535 6.23914 35247 ft 488 kts 173°
2026-04-07 10:11 38.16813 6.25225 35248 ft 488 kts 173°
2026-04-07 10:11 38.10140 6.26523 35249 ft 488 kts 173°
2026-04-07 10:12 38.03427 6.27827 35250 ft 488 kts 173°
2026-04-07 10:12 37.96709 6.29130 35246 ft 489 kts 173°
2026-04-07 10:13 37.89979 6.30432 35247 ft 489 kts 173°
2026-04-07 10:13 37.83244 6.31733 35243 ft 489 kts 173°
2026-04-07 10:14 37.76512 6.33031 35250 ft 489 kts 173°
2026-04-07 10:14 37.69810 6.34321 35248 ft 490 kts 173°
2026-04-07 10:15 37.63057 6.35618 35249 ft 490 kts 173°
2026-04-07 10:15 37.56304 6.36913 35244 ft 490 kts 173°
2026-04-07 10:16 37.49536 6.38208 35246 ft 491 kts 173°
2026-04-07 10:16 37.42770 6.39501 35241 ft 492 kts 173°
2026-04-07 10:17 37.36041 6.40784 35235 ft 492 kts 173°
2026-04-07 10:17 37.29263 6.42075 35245 ft 492 kts 173°
2026-04-07 10:18 37.22476 6.43364 35241 ft 492 kts 173°
2026-04-07 10:18 37.15739 6.44642 35238 ft 492 kts 173°
2026-04-07 10:19 37.05558 6.46568 35233 ft 492 kts 173°
2026-04-07 10:20 36.98770 6.47850 35253 ft 493 kts 173°
2026-04-07 10:20 36.92021 6.49122 35254 ft 493 kts 173°
2026-04-07 10:21 36.85223 6.50401 35262 ft 493 kts 173°
2026-04-07 10:21 36.78425 6.51677 35260 ft 493 kts 173°
2026-04-07 10:22 36.71637 6.52949 35272 ft 492 kts 173°
2026-04-07 10:22 36.64894 6.54212 35281 ft 492 kts 173°
2026-04-07 10:23 36.58072 6.55486 35281 ft 492 kts 173°
2026-04-07 10:23 36.51338 6.56741 35316 ft 492 kts 173°
2026-04-07 10:24 36.44563 6.58002 35334 ft 492 kts 173°
2026-04-07 10:24 36.37798 6.59260 35346 ft 492 kts 173°
2026-04-07 10:25 36.31022 6.60516 35340 ft 492 kts 173°
2026-04-07 10:25 36.24294 6.62002 35346 ft 491 kts 170°
2026-04-07 10:26 36.17641 6.63742 35344 ft 491 kts 169°
2026-04-07 10:26 36.10965 6.65505 35335 ft 491 kts 170°
2026-04-07 10:27 36.04264 6.67236 35324 ft 490 kts 170°
2026-04-07 10:27 35.97622 6.68928 35318 ft 490 kts 170°
2026-04-07 10:28 35.90928 6.70626 35316 ft 490 kts 170°
2026-04-07 10:28 35.84262 6.72314 35318 ft 490 kts 170°
2026-04-07 10:29 35.77566 6.74010 35318 ft 490 kts 170°
2026-04-07 10:29 35.70928 6.75688 35324 ft 490 kts 170°
2026-04-07 10:30 35.64239 6.77376 35319 ft 490 kts 170°
2026-04-07 10:30 35.57545 6.79062 35319 ft 490 kts 170°
2026-04-07 10:31 35.50856 6.80744 35325 ft 489 kts 170°
2026-04-07 10:31 35.44178 6.82419 35648 ft 490 kts 171°
2026-04-07 10:31 35.40884 6.83246 35883 ft 489 kts 171°
2026-04-07 10:32 35.37556 6.84080 36096 ft 488 kts 171°
2026-04-07 10:32 35.34226 6.84913 36256 ft 489 kts 171°
2026-04-07 10:32 35.30882 6.85749 36399 ft 490 kts 171°
2026-04-07 10:32 35.27534 6.86585 36617 ft 490 kts 171°
2026-04-07 10:33 35.24193 6.87419 36806 ft 490 kts 171°
2026-04-07 10:33 35.20855 6.88251 36990 ft 490 kts 171°
2026-04-07 10:33 35.17506 6.89086 37162 ft 490 kts 171°
2026-04-07 10:33 35.14167 6.89918 37316 ft 490 kts 171°
2026-04-07 10:34 35.10818 6.90751 37344 ft 491 kts 171°
2026-04-07 10:34 35.04118 6.92416 37335 ft 490 kts 171°
2026-04-07 10:35 34.97465 6.94067 37343 ft 491 kts 171°
2026-04-07 10:35 34.90766 6.95726 37339 ft 491 kts 171°
2026-04-07 10:36 34.84069 6.97381 37345 ft 491 kts 171°
2026-04-07 10:36 34.77368 6.99045 37343 ft 491 kts 171°
2026-04-07 10:37 34.70663 7.00742 37341 ft 492 kts 171°
2026-04-07 10:37 34.63957 7.02443 37336 ft 492 kts 171°
2026-04-07 10:38 34.57292 7.04129 37337 ft 492 kts 171°
2026-04-07 10:38 34.50579 7.05821 37336 ft 492 kts 171°
2026-04-07 10:39 34.43845 7.07515 37340 ft 494 kts 171°
2026-04-07 10:39 34.37102 7.09208 37338 ft 494 kts 171°
2026-04-07 10:40 34.30414 7.10885 37338 ft 494 kts 171°
2026-04-07 10:40 34.23672 7.12573 37334 ft 494 kts 171°
2026-04-07 10:41 34.16917 7.14261 37338 ft 495 kts 171°
2026-04-07 10:41 34.10160 7.15947 37342 ft 496 kts 171°
2026-04-07 10:42 34.03441 7.17621 37341 ft 496 kts 171°
2026-04-07 10:42 33.97818 7.19020 37338 ft 496 kts 172°
2026-04-07 10:43 33.91047 7.20702 37341 ft 496 kts 172°
2026-04-07 10:43 33.84270 7.22382 37344 ft 496 kts 172°
2026-04-07 10:44 33.77500 7.24058 37341 ft 497 kts 172°
2026-04-07 10:44 33.70727 7.25733 37343 ft 497 kts 172°
2026-04-07 10:45 33.63973 7.27399 37345 ft 498 kts 172°
2026-04-07 10:45 33.57174 7.29074 37344 ft 498 kts 172°
2026-04-07 10:46 33.50376 7.30747 37342 ft 498 kts 172°
2026-04-07 10:46 33.43568 7.32419 37331 ft 499 kts 173°
2026-04-07 10:47 33.36747 7.34091 37337 ft 501 kts 173°
2026-04-07 10:47 33.29951 7.35754 37337 ft 501 kts 173°
2026-04-07 10:48 33.23122 7.37424 37339 ft 501 kts 173°
2026-04-07 10:48 33.16278 7.39094 37340 ft 501 kts 173°
2026-04-07 10:49 33.09446 7.40759 37339 ft 501 kts 173°
2026-04-07 10:49 33.02664 7.42408 37338 ft 500 kts 173°
2026-04-07 10:50 32.95833 7.44067 37338 ft 501 kts 173°
2026-04-07 10:50 32.89000 7.45724 37338 ft 501 kts 173°
2026-04-07 10:51 32.82151 7.47382 37338 ft 502 kts 173°
2026-04-07 10:51 32.75302 7.49038 37337 ft 502 kts 173°
2026-04-07 10:52 32.68499 7.50680 37337 ft 502 kts 173°
2026-04-07 10:52 32.61658 7.52329 37338 ft 502 kts 174°
2026-04-07 10:53 32.54799 7.53979 37336 ft 502 kts 174°
2026-04-07 10:53 32.47949 7.55624 37334 ft 502 kts 174°
2026-04-07 10:54 32.41135 7.57258 37334 ft 502 kts 174°
2026-04-07 10:54 32.34283 7.58899 37334 ft 502 kts 174°
2026-04-07 10:55 32.27411 7.60541 37336 ft 504 kts 174°
2026-04-07 10:55 32.20511 7.62188 37342 ft 505 kts 174°
2026-04-07 10:56 32.13619 7.63832 37349 ft 505 kts 174°
2026-04-07 10:56 32.06767 7.65463 37339 ft 505 kts 175°
2026-04-07 10:57 31.99867 7.67102 37338 ft 506 kts 175°
2026-04-07 10:57 31.92954 7.68742 37339 ft 506 kts 175°
2026-04-07 10:58 31.86037 7.70381 37338 ft 506 kts 175°
2026-04-07 10:58 31.79175 7.72005 37337 ft 506 kts 176°
2026-04-07 10:59 31.72246 7.73653 37337 ft 507 kts 176°
2026-04-07 10:59 31.65320 7.75329 37333 ft 508 kts 176°
2026-04-07 11:00 31.58400 7.77006 37337 ft 508 kts 176°
2026-04-07 11:00 31.51472 7.78680 37333 ft 508 kts 176°
2026-04-07 11:01 31.44584 7.80338 37340 ft 509 kts 176°
2026-04-07 11:01 31.37636 7.82008 37341 ft 509 kts 176°
2026-04-07 11:02 31.30695 7.83674 37337 ft 509 kts 176°
2026-04-07 11:02 31.23756 7.85337 37336 ft 510 kts 177°
2026-04-07 11:03 31.16794 7.87002 37335 ft 511 kts 177°
2026-04-07 11:03 31.09808 7.88672 37334 ft 511 kts 177°
2026-04-07 11:04 31.02884 7.90324 37336 ft 511 kts 177°
2026-04-07 11:04 30.95897 7.91989 37335 ft 512 kts 178°
2026-04-07 11:05 30.88909 7.93650 37336 ft 512 kts 178°
2026-04-07 11:05 30.81915 7.95312 37333 ft 512 kts 178°
2026-04-07 11:06 30.74970 7.96960 37334 ft 512 kts 178°
2026-04-07 11:06 30.67960 7.98619 37332 ft 514 kts 178°
2026-04-07 11:07 30.60936 8.00279 37329 ft 515 kts 178°
2026-04-07 11:07 30.53904 8.01941 37330 ft 515 kts 178°
2026-04-07 11:08 30.46923 8.03588 37330 ft 515 kts 178°
2026-04-07 11:08 30.39882 8.05247 37330 ft 515 kts 178°
2026-04-07 11:09 30.32854 8.06898 37329 ft 515 kts 178°
2026-04-07 11:09 30.25817 8.08550 37330 ft 515 kts 178°
2026-04-07 11:10 30.18830 8.10187 37329 ft 515 kts 178°
2026-04-07 11:10 30.11800 8.11834 37325 ft 514 kts 178°
2026-04-07 11:11 30.04794 8.13476 37332 ft 513 kts 178°
2026-04-07 11:11 29.97832 8.15126 37323 ft 513 kts 178°
2026-04-07 11:12 29.90837 8.16790 37328 ft 513 kts 178°
2026-04-07 11:12 29.83843 8.18452 37328 ft 512 kts 178°
2026-04-07 11:13 29.76863 8.20106 37329 ft 511 kts 178°
2026-04-07 11:13 29.69884 8.21756 37325 ft 511 kts 178°
2026-04-07 11:14 29.62951 8.23392 37318 ft 511 kts 178°
2026-04-07 11:14 29.55979 8.25036 37292 ft 511 kts 178°
2026-04-07 11:15 29.49044 8.26669 37322 ft 510 kts 178°
2026-04-07 11:15 29.42086 8.28306 37313 ft 510 kts 178°
2026-04-07 11:16 29.35117 8.29941 37312 ft 510 kts 178°
2026-04-07 11:16 29.28160 8.31572 37316 ft 510 kts 178°
2026-04-07 11:17 29.21214 8.33200 37312 ft 509 kts 178°
2026-04-07 11:17 29.14318 8.34813 37327 ft 508 kts 178°
2026-04-07 11:18 29.07365 8.36433 37316 ft 511 kts 178°
2026-04-07 11:18 29.00396 8.38058 37308 ft 511 kts 178°
2026-04-07 11:19 28.93416 8.39685 37308 ft 510 kts 178°
2026-04-07 11:19 28.86468 8.41303 37316 ft 509 kts 178°
2026-04-07 11:20 28.79563 8.42906 37315 ft 509 kts 178°
2026-04-07 11:20 28.72615 8.44516 37312 ft 509 kts 178°
2026-04-07 11:21 28.65669 8.46125 37318 ft 509 kts 178°
2026-04-07 11:21 28.58724 8.47732 37308 ft 508 kts 178°
2026-04-07 11:22 28.51843 8.49321 37309 ft 507 kts 178°
2026-04-07 11:22 28.44905 8.50921 37312 ft 507 kts 178°
2026-04-07 11:23 28.38024 8.52506 37287 ft 507 kts 178°
2026-04-07 11:23 28.31114 8.54097 37309 ft 506 kts 178°
2026-04-07 11:24 28.24211 8.55682 37306 ft 505 kts 178°
2026-04-07 11:24 28.17316 8.57264 37303 ft 505 kts 178°
2026-04-07 11:25 28.06959 8.59640 37295 ft 505 kts 179°
2026-04-07 11:25 28.00123 8.61224 37295 ft 504 kts 179°
2026-04-07 11:26 27.93243 8.62819 37295 ft 504 kts 179°
2026-04-07 11:26 27.86371 8.64408 37297 ft 504 kts 179°
2026-04-07 11:27 27.79506 8.65993 37283 ft 504 kts 179°
2026-04-07 11:27 27.72628 8.67578 37292 ft 503 kts 179°
2026-04-07 11:28 27.65804 8.69149 37293 ft 503 kts 179°
2026-04-07 11:28 27.58932 8.70729 37292 ft 503 kts 179°
2026-04-07 11:29 27.52055 8.72308 37292 ft 504 kts 179°
2026-04-07 11:29 27.45206 8.73877 37286 ft 506 kts 179°
2026-04-07 11:30 27.38291 8.75459 37284 ft 506 kts 179°
2026-04-07 11:30 27.31422 8.77033 37281 ft 506 kts 179°
2026-04-07 11:31 27.24518 8.78612 37282 ft 506 kts 179°
2026-04-07 11:31 27.18773 8.79923 37264 ft 506 kts 179°
2026-04-07 11:32 27.11884 8.81494 37283 ft 505 kts 179°
2026-04-07 11:32 27.04980 8.83066 37282 ft 505 kts 179°
2026-04-07 11:33 26.98085 8.84634 37284 ft 505 kts 179°
2026-04-07 11:33 26.91188 8.86213 37279 ft 505 kts 179°
2026-04-07 11:34 26.84293 8.87794 37288 ft 505 kts 180°
2026-04-07 11:34 26.77407 8.89371 37289 ft 505 kts 180°
2026-04-07 11:35 26.70566 8.90934 37260 ft 504 kts 180°
2026-04-07 11:35 26.63682 8.92503 37280 ft 504 kts 180°
2026-04-07 11:36 26.56792 8.94073 37259 ft 504 kts 180°
2026-04-07 11:36 26.49911 8.95640 37275 ft 503 kts 180°
2026-04-07 11:37 26.43090 8.97192 37270 ft 503 kts 180°
2026-04-07 11:37 26.36219 8.98751 37272 ft 503 kts 180°
2026-04-07 11:38 26.29345 9.00308 37271 ft 503 kts 180°
2026-04-07 11:38 26.22515 9.01856 37270 ft 502 kts 180°
2026-04-07 11:39 26.15665 9.03407 37273 ft 501 kts 181°
2026-04-07 11:39 26.08819 9.04953 37267 ft 501 kts 180°
2026-04-07 11:40 26.01988 9.06494 37272 ft 500 kts 181°
2026-04-07 11:40 25.95212 9.08027 37252 ft 501 kts 181°
2026-04-07 11:41 25.88378 9.09580 37280 ft 500 kts 181°
2026-04-07 11:41 25.81545 9.11132 37275 ft 501 kts 181°
2026-04-07 11:42 25.74706 9.12681 37275 ft 501 kts 181°
2026-04-07 11:42 25.67877 9.14226 37274 ft 501 kts 181°
2026-04-07 11:43 25.61096 9.15760 37273 ft 501 kts 181°
2026-04-07 11:43 25.54259 9.17305 37275 ft 500 kts 181°
2026-04-07 11:44 25.47440 9.18844 37282 ft 500 kts 181°
2026-04-07 11:44 25.40620 9.20380 37275 ft 500 kts 181°
2026-04-07 11:45 25.33787 9.21918 37246 ft 500 kts 181°
2026-04-07 11:45 25.26971 9.23449 37277 ft 500 kts 181°
2026-04-07 11:46 25.20177 9.25643 37280 ft 519 kts 171°
2026-04-07 11:46 25.13514 9.28751 37277 ft 525 kts 168°
2026-04-07 11:47 25.06831 9.32101 37279 ft 526 kts 167°
2026-04-07 11:47 25.00210 9.35426 37274 ft 525 kts 167°
2026-04-07 11:48 24.93542 9.38737 37276 ft 524 kts 168°
2026-04-07 11:48 24.86882 9.42019 37284 ft 524 kts 168°
2026-04-07 11:49 24.80210 9.45298 37277 ft 525 kts 168°
2026-04-07 11:49 24.73580 9.48556 37276 ft 524 kts 168°
2026-04-07 11:50 24.66893 9.51831 37260 ft 525 kts 168°
2026-04-07 11:50 24.60221 9.55107 37276 ft 523 kts 168°
2026-04-07 11:51 24.53607 9.58351 37293 ft 523 kts 168°
2026-04-07 11:51 24.46962 9.61601 37315 ft 523 kts 168°
2026-04-07 11:52 24.40303 9.64854 37308 ft 523 kts 168°
2026-04-07 11:52 24.33660 9.68096 37308 ft 523 kts 168°
2026-04-07 11:53 24.27038 9.71324 37315 ft 523 kts 168°
2026-04-07 11:53 24.20384 9.74564 37282 ft 523 kts 168°
2026-04-07 11:54 24.13725 9.77802 37265 ft 523 kts 168°
2026-04-07 11:54 24.07110 9.81016 37267 ft 523 kts 168°
2026-04-07 11:55 24.00457 9.84245 37258 ft 522 kts 168°
2026-04-07 11:55 23.93814 9.87466 37258 ft 521 kts 168°
2026-04-07 11:56 23.87169 9.90683 37258 ft 521 kts 168°
2026-04-07 11:56 23.80542 9.93887 37254 ft 522 kts 168°
2026-04-07 11:57 23.73925 9.97084 37228 ft 522 kts 167°
2026-04-07 11:57 23.67281 10.00290 37247 ft 521 kts 167°
2026-04-07 11:58 23.60648 10.03488 37256 ft 521 kts 167°
2026-04-07 11:58 23.54014 10.06681 37251 ft 520 kts 167°
2026-04-07 11:59 23.47425 10.09850 37248 ft 520 kts 167°
2026-04-07 11:59 23.40785 10.13040 37210 ft 520 kts 167°
2026-04-07 12:00 23.34147 10.16225 37240 ft 520 kts 167°
2026-04-07 12:00 23.27558 10.19384 37243 ft 520 kts 167°
2026-04-07 12:01 23.20917 10.22564 37226 ft 521 kts 167°
2026-04-07 12:01 23.14290 10.25733 37236 ft 521 kts 167°
2026-04-07 12:02 23.07654 10.28904 37215 ft 521 kts 167°
2026-04-07 12:02 23.01015 10.32073 37230 ft 521 kts 167°
2026-04-07 12:03 22.94374 10.35240 37230 ft 521 kts 167°
2026-04-07 12:03 22.87775 10.38383 37222 ft 521 kts 167°
2026-04-07 12:04 22.81126 10.41546 37222 ft 520 kts 167°
2026-04-07 12:04 22.74492 10.44699 37198 ft 520 kts 167°
2026-04-07 12:05 22.67868 10.47845 37217 ft 519 kts 167°
2026-04-07 12:05 22.61396 10.51351 37214 ft 530 kts 160°
2026-04-07 12:06 22.55058 10.55480 37214 ft 533 kts 158°
2026-04-07 12:06 22.48757 10.59725 37204 ft 533 kts 158°
2026-04-07 12:07 22.42480 10.63958 37160 ft 533 kts 158°
2026-04-07 12:07 22.36181 10.68184 37197 ft 531 kts 158°
2026-04-07 12:08 22.29899 10.72382 37196 ft 530 kts 158°
2026-04-07 12:08 22.23616 10.76572 37195 ft 530 kts 158°
2026-04-07 12:09 22.17368 10.80735 37190 ft 530 kts 158°
2026-04-07 12:09 22.11082 10.84920 37189 ft 530 kts 158°
2026-04-07 12:10 22.04803 10.89098 37180 ft 529 kts 158°
2026-04-07 12:10 21.98535 10.93264 37179 ft 528 kts 158°
2026-04-07 12:11 21.92324 10.97386 37171 ft 528 kts 158°
2026-04-07 12:11 21.86069 11.01532 37173 ft 528 kts 158°
2026-04-07 12:12 21.79810 11.05677 37165 ft 528 kts 158°
2026-04-07 12:12 21.73546 11.09822 37144 ft 527 kts 157°
2026-04-07 12:13 21.67300 11.13952 37163 ft 525 kts 158°
2026-04-07 12:13 21.61121 11.18033 37148 ft 524 kts 158°
2026-04-07 12:14 21.54896 11.22138 37144 ft 524 kts 158°
2026-04-07 12:14 21.48670 11.26240 37156 ft 524 kts 158°
2026-04-07 12:15 21.42444 11.30339 37163 ft 524 kts 158°
2026-04-07 12:15 21.36257 11.34408 37143 ft 523 kts 157°
2026-04-07 12:16 21.30056 11.38483 37146 ft 522 kts 157°
2026-04-07 12:16 21.23861 11.42548 37145 ft 522 kts 157°
2026-04-07 12:17 21.17664 11.46610 37140 ft 522 kts 157°
2026-04-07 12:17 21.12502 11.49991 37138 ft 522 kts 157°
2026-04-07 12:18 21.06306 11.54048 37135 ft 522 kts 157°
2026-04-07 12:18 21.00106 11.58102 37127 ft 522 kts 157°
2026-04-07 12:19 20.93938 11.62132 37124 ft 522 kts 157°
2026-04-07 12:19 20.87743 11.66176 37125 ft 522 kts 157°
2026-04-07 12:20 20.81530 11.70228 37118 ft 522 kts 157°
2026-04-07 12:20 20.75322 11.74272 37123 ft 522 kts 157°
2026-04-07 12:21 20.69116 11.78310 37115 ft 522 kts 156°
2026-04-07 12:21 20.62919 11.82341 37119 ft 521 kts 156°
2026-04-07 12:22 20.56769 11.86336 37113 ft 521 kts 156°
2026-04-07 12:22 20.50572 11.90355 37113 ft 521 kts 157°
2026-04-07 12:23 20.44380 11.94367 37111 ft 521 kts 157°
2026-04-07 12:23 20.38178 11.98381 37094 ft 520 kts 156°
2026-04-07 12:24 20.31983 12.02388 37108 ft 520 kts 156°
2026-04-07 12:24 20.25828 12.06365 37102 ft 520 kts 156°
2026-04-07 12:25 20.19637 12.10360 37108 ft 520 kts 156°
2026-04-07 12:25 20.13443 12.14355 37102 ft 520 kts 156°
2026-04-07 12:26 20.07240 12.18351 37101 ft 520 kts 156°
2026-04-07 12:26 20.01087 12.22312 37085 ft 519 kts 156°
2026-04-07 12:27 19.94905 12.26289 37101 ft 518 kts 156°
2026-04-07 12:27 19.88727 12.30259 37101 ft 518 kts 156°
2026-04-07 12:28 19.82544 12.34227 37082 ft 518 kts 156°
2026-04-07 12:29 19.73317 12.40143 37079 ft 518 kts 156°
2026-04-07 12:29 19.67140 12.44098 37085 ft 517 kts 155°
2026-04-07 12:30 19.60986 12.48038 37089 ft 515 kts 156°
2026-04-07 12:30 19.54880 12.51941 37088 ft 515 kts 156°
2026-04-07 12:31 19.48740 12.55862 37086 ft 515 kts 156°
2026-04-07 12:31 19.42595 12.59783 37086 ft 515 kts 156°
2026-04-07 12:32 19.36446 12.63703 37082 ft 515 kts 156°
2026-04-07 12:32 19.30350 12.67587 37080 ft 514 kts 155°
2026-04-07 12:33 19.24223 12.71488 37081 ft 512 kts 155°
2026-04-07 12:33 19.18107 12.75375 37084 ft 512 kts 155°
2026-04-07 12:34 19.11988 12.79263 37077 ft 512 kts 155°
2026-04-07 12:34 19.05908 12.83122 37076 ft 512 kts 155°
2026-04-07 12:35 18.99810 12.87029 37057 ft 515 kts 152°
2026-04-07 12:35 18.94242 12.91882 37076 ft 521 kts 143°
2026-04-07 12:36 18.88911 12.97098 37071 ft 522 kts 142°
2026-04-07 12:36 18.83658 13.02347 37072 ft 522 kts 142°
2026-04-07 12:37 18.78374 13.07607 37064 ft 522 kts 142°
2026-04-07 12:37 18.73072 13.12854 37064 ft 522 kts 142°
2026-04-07 12:38 18.67772 13.18084 37064 ft 521 kts 142°
2026-04-07 12:38 18.62505 13.23275 37053 ft 520 kts 142°
2026-04-07 12:39 18.57220 13.28482 37059 ft 519 kts 142°
2026-04-07 12:39 18.51952 13.33666 37059 ft 518 kts 142°
2026-04-07 12:40 18.46668 13.38862 37053 ft 518 kts 142°
2026-04-07 12:40 18.41395 13.44043 37053 ft 518 kts 142°
2026-04-07 12:41 18.36152 13.49189 37046 ft 518 kts 142°
2026-04-07 12:41 18.30873 13.54366 37042 ft 518 kts 142°
2026-04-07 12:42 18.25598 13.59535 37044 ft 517 kts 142°
2026-04-07 12:42 18.20329 13.64695 37037 ft 516 kts 142°
2026-04-07 12:43 18.15104 13.69806 37037 ft 516 kts 142°
2026-04-07 12:43 18.09843 13.74947 37037 ft 516 kts 142°
2026-04-07 12:44 18.04578 13.80089 37032 ft 516 kts 142°
2026-04-07 12:44 17.99345 13.85194 37032 ft 516 kts 142°
2026-04-07 12:45 17.94086 13.90322 37029 ft 515 kts 142°
2026-04-07 12:45 17.88825 13.95446 37022 ft 514 kts 142°
2026-04-07 12:46 17.83580 14.00552 37024 ft 513 kts 142°
2026-04-07 12:46 17.78345 14.05642 37023 ft 513 kts 142°
2026-04-07 12:47 17.73139 14.10699 37018 ft 513 kts 142°
2026-04-07 12:47 17.67900 14.15784 37018 ft 513 kts 142°
2026-04-07 12:48 17.62651 14.20875 37012 ft 513 kts 142°
2026-04-07 12:48 17.57440 14.25926 37009 ft 513 kts 142°
2026-04-07 12:49 17.52194 14.31005 37009 ft 513 kts 142°
2026-04-07 12:49 17.46983 14.36048 37002 ft 513 kts 142°
2026-04-07 12:50 17.41735 14.41120 37001 ft 513 kts 142°
2026-04-07 12:50 17.36488 14.46189 37001 ft 513 kts 142°
2026-04-07 12:51 17.31237 14.51258 36993 ft 513 kts 142°
2026-04-07 12:51 17.25989 14.56318 36993 ft 513 kts 142°
2026-04-07 12:52 17.20770 14.61346 36993 ft 513 kts 142°
2026-04-07 12:52 17.15528 14.66392 36987 ft 511 kts 142°
2026-04-07 12:53 17.10296 14.71425 36988 ft 511 kts 142°
2026-04-07 12:53 17.05055 14.76462 36985 ft 511 kts 142°
2026-04-07 12:54 16.99851 14.81460 36985 ft 511 kts 142°
2026-04-07 12:54 16.94610 14.86489 36982 ft 511 kts 142°
2026-04-07 12:55 16.89370 14.91513 36980 ft 511 kts 142°
2026-04-07 12:55 16.84164 14.96502 36975 ft 511 kts 142°
2026-04-07 12:56 16.78934 15.01510 36983 ft 509 kts 141°
2026-04-07 12:56 16.73713 15.06505 36975 ft 508 kts 142°
2026-04-07 12:57 16.68498 15.11490 36965 ft 508 kts 142°
2026-04-07 12:57 16.63315 15.16440 36966 ft 508 kts 142°
2026-04-07 12:58 16.58097 15.21420 36972 ft 508 kts 142°
2026-04-07 12:58 16.52873 15.26402 36969 ft 508 kts 142°
2026-04-07 12:59 16.47689 15.31342 36951 ft 508 kts 142°
2026-04-07 12:59 16.42469 15.36312 36960 ft 506 kts 141°
2026-04-07 13:00 16.37268 15.41262 36957 ft 506 kts 141°
2026-04-07 13:00 16.32072 15.46203 36964 ft 506 kts 141°
2026-04-07 13:01 16.26877 15.51139 36956 ft 506 kts 141°
2026-04-07 13:01 16.21702 15.56051 36953 ft 506 kts 141°
2026-04-07 13:02 16.16499 15.60987 36956 ft 506 kts 141°
2026-04-07 13:02 16.11281 15.65934 36941 ft 506 kts 141°
2026-04-07 13:03 16.06112 15.70830 36951 ft 505 kts 141°
2026-04-07 13:03 16.00888 15.75775 36943 ft 504 kts 141°
2026-04-07 13:04 15.95736 15.80648 36943 ft 504 kts 141°
2026-04-07 13:04 15.90542 15.85558 36943 ft 504 kts 141°
2026-04-07 13:05 15.85352 15.90459 36936 ft 504 kts 141°
2026-04-07 13:05 15.80154 15.95366 36937 ft 504 kts 141°
2026-04-07 13:06 15.74955 16.00269 36938 ft 504 kts 141°
2026-04-07 13:06 15.69800 16.05128 36926 ft 502 kts 141°
2026-04-07 13:07 15.64635 16.09993 36926 ft 500 kts 141°
2026-04-07 13:07 15.60349 16.14027 36923 ft 500 kts 141°
2026-04-07 13:08 15.55189 16.18879 36923 ft 500 kts 141°
2026-04-07 13:08 15.50016 16.23740 36923 ft 500 kts 141°
2026-04-07 13:09 15.44890 16.28555 36908 ft 500 kts 141°
2026-04-07 13:09 15.39722 16.33405 36911 ft 500 kts 141°
2026-04-07 13:10 15.34562 16.38245 36915 ft 499 kts 141°
2026-04-07 13:10 15.29441 16.43045 36905 ft 498 kts 141°
2026-04-07 13:11 15.24297 16.47863 36911 ft 498 kts 141°
2026-04-07 13:11 15.19147 16.52682 36906 ft 498 kts 141°
2026-04-07 13:12 15.13997 16.57499 36897 ft 498 kts 141°
2026-04-07 13:12 15.08879 16.62283 36898 ft 498 kts 141°
2026-04-07 13:13 15.03729 16.67094 36894 ft 498 kts 141°
2026-04-07 13:13 14.98569 16.71910 36888 ft 498 kts 141°
2026-04-07 13:14 14.93464 16.76672 36890 ft 498 kts 141°
2026-04-07 13:14 14.88316 16.81471 36884 ft 497 kts 141°
2026-04-07 13:15 14.83169 16.86266 36879 ft 498 kts 141°
2026-04-07 13:15 14.78018 16.91060 36873 ft 498 kts 141°
2026-04-07 13:16 14.72902 16.95819 36873 ft 498 kts 141°
2026-04-07 13:16 14.67751 17.00609 36867 ft 498 kts 141°
2026-04-07 13:17 14.62610 17.05385 36863 ft 498 kts 140°
2026-04-07 13:17 14.57454 17.10171 36867 ft 498 kts 140°
2026-04-07 13:18 14.52296 17.14955 36857 ft 498 kts 140°
2026-04-07 13:18 14.47165 17.19713 36854 ft 498 kts 140°
2026-04-07 13:19 14.42003 17.24495 36848 ft 498 kts 141°
2026-04-07 13:19 14.36870 17.29248 36848 ft 498 kts 141°
2026-04-07 13:20 14.31700 17.34032 36848 ft 498 kts 141°
2026-04-07 13:20 14.26536 17.38806 36844 ft 498 kts 140°
2026-04-07 13:21 14.21370 17.43580 36844 ft 497 kts 140°
2026-04-07 13:21 14.16256 17.48304 36839 ft 497 kts 140°
2026-04-07 13:22 14.11092 17.53070 36840 ft 497 kts 140°
2026-04-07 13:22 14.05939 17.57822 36840 ft 497 kts 140°
2026-04-07 13:23 14.00783 17.62574 36840 ft 497 kts 140°
2026-04-07 13:23 13.95657 17.67296 36838 ft 497 kts 140°
2026-04-07 13:24 13.90494 17.72050 36839 ft 497 kts 140°
2026-04-07 13:24 13.85332 17.76799 36838 ft 496 kts 140°
2026-04-07 13:25 13.80229 17.81491 36839 ft 494 kts 140°
2026-04-07 13:25 13.75102 17.86203 36837 ft 494 kts 140°
2026-04-07 13:26 13.69978 17.90908 36834 ft 494 kts 140°
2026-04-07 13:26 13.64844 17.95619 36838 ft 494 kts 140°
2026-04-07 13:27 13.59749 18.00293 36838 ft 494 kts 140°
2026-04-07 13:27 13.54617 18.04997 36837 ft 494 kts 140°
2026-04-07 13:28 13.49495 18.09689 36830 ft 492 kts 140°
2026-04-07 13:28 13.44409 18.14347 36830 ft 491 kts 140°
2026-04-07 13:29 13.39296 18.19025 36830 ft 492 kts 140°
2026-04-07 13:29 13.34184 18.23699 36830 ft 492 kts 140°
2026-04-07 13:30 13.29076 18.28368 36832 ft 492 kts 140°
2026-04-07 13:30 13.23990 18.33013 36826 ft 492 kts 140°
2026-04-07 13:31 13.18877 18.37680 36826 ft 491 kts 140°
2026-04-07 13:31 13.13763 18.42345 36831 ft 491 kts 140°
2026-04-07 13:32 13.08657 18.47001 36823 ft 489 kts 140°
2026-04-07 13:32 13.03595 18.51615 36824 ft 489 kts 140°
2026-04-07 13:33 12.98503 18.56252 36823 ft 489 kts 140°
2026-04-07 13:33 12.90858 18.63210 36820 ft 489 kts 140°
2026-04-07 13:34 12.85795 18.67814 36822 ft 489 kts 140°
2026-04-07 13:34 12.80699 18.72446 36825 ft 489 kts 140°
2026-04-07 13:35 12.75641 18.77041 36823 ft 487 kts 140°
2026-04-07 13:35 12.70563 18.81652 36822 ft 487 kts 140°
2026-04-07 13:36 12.65486 18.86258 36825 ft 486 kts 140°
2026-04-07 13:36 12.60415 18.90857 36823 ft 486 kts 140°
2026-04-07 13:37 12.55375 18.95426 36823 ft 486 kts 140°
2026-04-07 13:37 12.50302 19.00022 36830 ft 486 kts 140°
2026-04-07 13:38 12.45230 19.04613 36831 ft 487 kts 140°
2026-04-07 13:38 12.40153 19.09207 36827 ft 485 kts 140°
2026-04-07 13:39 12.35139 19.13742 36831 ft 484 kts 139°
2026-04-07 13:39 12.30080 19.18315 36831 ft 485 kts 139°
2026-04-07 13:40 12.25026 19.22881 36832 ft 485 kts 139°
2026-04-07 13:40 12.19969 19.27447 36835 ft 485 kts 139°
2026-04-07 13:41 12.14910 19.32012 36834 ft 485 kts 139°
2026-04-07 13:41 12.09884 19.36546 36835 ft 485 kts 139°
2026-04-07 13:42 12.04824 19.41108 36826 ft 484 kts 139°
2026-04-07 13:42 11.99769 19.45663 36829 ft 484 kts 139°
2026-04-07 13:43 11.94746 19.50187 36828 ft 483 kts 139°
2026-04-07 13:43 11.89699 19.54729 36823 ft 484 kts 139°
2026-04-07 13:44 11.84644 19.59276 36824 ft 484 kts 139°
2026-04-07 13:44 11.79588 19.63823 36821 ft 484 kts 139°
2026-04-07 13:45 11.74535 19.68364 36819 ft 483 kts 139°
2026-04-07 13:45 11.69491 19.72896 36820 ft 483 kts 139°
2026-04-07 13:46 11.64479 19.77395 36820 ft 482 kts 139°
2026-04-07 13:46 11.59425 19.81894 36819 ft 481 kts 140°
2026-04-07 13:47 11.54360 19.86373 36822 ft 482 kts 140°
2026-04-07 13:47 11.49286 19.90858 36821 ft 483 kts 140°
2026-04-07 13:48 11.44253 19.95308 36819 ft 481 kts 140°
2026-04-07 13:48 11.39188 19.99787 36819 ft 481 kts 140°
2026-04-07 13:49 11.34132 20.04256 36818 ft 480 kts 140°
2026-04-07 13:49 11.29086 20.08714 36816 ft 479 kts 139°
2026-04-07 13:50 11.24070 20.13142 36816 ft 480 kts 139°
2026-04-07 13:50 11.19028 20.17591 36816 ft 479 kts 139°
2026-04-07 13:51 11.13976 20.22048 36815 ft 479 kts 139°
2026-04-07 13:51 11.08966 20.26465 36814 ft 478 kts 140°
2026-04-07 13:52 11.03930 20.30903 36823 ft 478 kts 140°
2026-04-07 13:52 10.98903 20.35331 36821 ft 477 kts 140°
2026-04-07 13:53 10.93890 20.39745 36822 ft 475 kts 139°
2026-04-07 13:53 10.88911 20.44127 36819 ft 477 kts 139°
2026-04-07 13:54 10.83883 20.48550 36819 ft 476 kts 139°
2026-04-07 13:54 10.78857 20.52968 36819 ft 479 kts 139°
2026-04-07 13:55 10.73831 20.57385 36821 ft 479 kts 139°
2026-04-07 13:55 10.68790 20.61813 36816 ft 477 kts 139°
2026-04-07 13:56 10.63760 20.66229 36817 ft 477 kts 140°
2026-04-07 13:56 10.58745 20.70631 36822 ft 476 kts 139°
2026-04-07 13:57 10.53732 20.75029 36818 ft 476 kts 139°
2026-04-07 13:57 10.48733 20.79412 36816 ft 477 kts 140°
2026-04-07 13:58 10.43708 20.83816 36821 ft 476 kts 139°
2026-04-07 13:58 10.38686 20.88216 36818 ft 477 kts 139°
2026-04-07 13:59 10.34504 20.91878 36816 ft 477 kts 139°
2026-04-07 13:59 10.28657 20.96995 36818 ft 476 kts 139°
2026-04-07 14:00 10.24446 21.00680 36817 ft 476 kts 139°
2026-04-07 14:00 10.19458 21.05042 36817 ft 474 kts 139°
2026-04-07 14:01 10.14444 21.09426 36818 ft 476 kts 139°
2026-04-07 14:01 10.09451 21.13788 36818 ft 476 kts 139°
2026-04-07 14:02 10.04427 21.18177 36816 ft 476 kts 139°
2026-04-07 14:02 9.99402 21.22564 36811 ft 476 kts 139°
2026-04-07 14:03 9.94372 21.26955 36811 ft 475 kts 139°
2026-04-07 14:03 9.89384 21.31306 36815 ft 475 kts 139°
2026-04-07 14:04 9.84364 21.35683 36815 ft 475 kts 139°
2026-04-07 14:04 9.79347 21.40056 36814 ft 474 kts 139°
2026-04-07 14:05 9.74370 21.44393 36820 ft 475 kts 139°
2026-04-07 14:05 9.69350 21.48764 36831 ft 475 kts 139°
2026-04-07 14:06 9.64318 21.53146 36825 ft 475 kts 139°
2026-04-07 14:06 9.59315 21.57500 36829 ft 476 kts 139°
2026-04-07 14:07 9.54284 21.61875 36833 ft 475 kts 139°
2026-04-07 14:07 9.49329 21.66254 36832 ft 475 kts 137°
2026-04-07 14:08 9.44391 21.70696 36833 ft 473 kts 137°
2026-04-07 14:08 9.39455 21.75142 36835 ft 474 kts 138°
2026-04-07 14:09 9.34530 21.79565 36838 ft 476 kts 137°
2026-04-07 14:09 9.29572 21.84009 36851 ft 476 kts 137°
2026-04-07 14:10 9.24599 21.88466 36838 ft 479 kts 137°
2026-04-07 14:10 9.19606 21.92938 36838 ft 477 kts 137°
2026-04-07 14:11 9.14634 21.97390 36837 ft 477 kts 137°
2026-04-07 14:11 9.09683 22.01822 36842 ft 480 kts 137°
2026-04-07 14:12 9.04642 22.06333 36842 ft 485 kts 137°
2026-04-07 14:12 8.99570 22.10869 36848 ft 486 kts 137°
2026-04-07 14:13 8.94535 22.15370 36847 ft 486 kts 138°
2026-04-07 14:13 8.89448 22.19916 36847 ft 488 kts 138°
2026-04-07 14:14 8.84355 22.24465 36846 ft 488 kts 137°
2026-04-07 14:14 8.79266 22.29010 36861 ft 488 kts 138°
2026-04-07 14:15 8.74184 22.33546 36866 ft 485 kts 137°
2026-04-07 14:15 8.69139 22.38047 36882 ft 481 kts 137°
2026-04-07 14:16 8.64140 22.42506 36864 ft 483 kts 137°
2026-04-07 14:16 8.59105 22.46996 36872 ft 482 kts 138°
2026-04-07 14:17 8.54061 22.51492 36879 ft 484 kts 138°
2026-04-07 14:17 8.49004 22.55998 36893 ft 483 kts 138°
2026-04-07 14:18 8.43962 22.60490 36903 ft 481 kts 137°
2026-04-07 14:18 8.38964 22.64938 36884 ft 481 kts 137°
2026-04-07 14:19 8.33956 22.69396 36903 ft 478 kts 137°
2026-04-07 14:19 8.28951 22.73849 36890 ft 479 kts 138°
2026-04-07 14:20 8.23939 22.78307 36884 ft 479 kts 137°
2026-04-07 14:20 8.18964 22.82731 36886 ft 480 kts 138°
2026-04-07 14:21 8.14212 22.87465 36904 ft 480 kts 132°
2026-04-07 14:21 8.09735 22.92463 36880 ft 479 kts 130°
2026-04-07 14:22 8.05326 22.97489 36900 ft 477 kts 130°
2026-04-07 14:22 8.00946 23.02483 36888 ft 477 kts 131°
2026-04-07 14:23 7.96541 23.07490 36890 ft 475 kts 131°
2026-04-07 14:23 7.92145 23.12475 36891 ft 475 kts 131°
2026-04-07 14:24 7.87731 23.17479 36886 ft 477 kts 131°
2026-04-07 14:24 7.83338 23.22456 36885 ft 478 kts 131°
2026-04-07 14:25 7.78906 23.27477 36887 ft 479 kts 131°
2026-04-07 14:25 7.74478 23.32492 36890 ft 478 kts 131°
2026-04-07 14:26 7.70048 23.37508 36889 ft 478 kts 131°
2026-04-07 14:26 7.65650 23.42485 36895 ft 478 kts 131°
2026-04-07 14:27 7.61204 23.47516 36895 ft 482 kts 131°
2026-04-07 14:27 7.56730 23.52576 36898 ft 482 kts 131°
2026-04-07 14:28 7.52292 23.57593 36897 ft 481 kts 131°
2026-04-07 14:28 7.47823 23.62644 36901 ft 482 kts 131°
2026-04-07 14:29 7.43349 23.67700 36903 ft 483 kts 131°
2026-04-07 14:29 7.38907 23.72716 36901 ft 482 kts 131°
2026-04-07 14:30 7.34433 23.77767 36902 ft 483 kts 131°
2026-04-07 14:30 7.29946 23.82831 36899 ft 484 kts 131°
2026-04-07 14:31 7.25481 23.87868 36900 ft 484 kts 130°
2026-04-07 14:31 7.20992 23.92932 36896 ft 484 kts 130°
2026-04-07 14:32 7.16498 23.97999 36898 ft 484 kts 130°
2026-04-07 14:32 7.12005 24.03063 36896 ft 484 kts 130°
2026-04-07 14:33 7.07541 24.08093 36894 ft 484 kts 130°
2026-04-07 14:33 7.03054 24.13148 36891 ft 483 kts 130°
2026-04-07 14:34 6.98571 24.18196 36892 ft 483 kts 130°
2026-04-07 14:34 6.94120 24.23207 36890 ft 483 kts 130°
2026-04-07 14:35 6.89636 24.28253 36896 ft 482 kts 130°
2026-04-07 14:35 6.85161 24.33287 36891 ft 482 kts 130°
2026-04-07 14:36 6.80717 24.38285 36893 ft 481 kts 130°
2026-04-07 14:36 6.76252 24.43305 36889 ft 480 kts 130°
2026-04-07 14:37 6.71798 24.48311 36889 ft 479 kts 130°
2026-04-07 14:37 6.67383 24.53273 36883 ft 479 kts 130°
2026-04-07 14:38 6.62935 24.58270 36883 ft 479 kts 130°
2026-04-07 14:38 6.58487 24.63265 36884 ft 479 kts 130°
2026-04-07 14:39 6.51816 24.70754 36881 ft 479 kts 130°
2026-04-07 14:40 6.47397 24.75713 36884 ft 479 kts 130°
2026-04-07 14:40 6.42947 24.80706 36883 ft 479 kts 130°
2026-04-07 14:41 6.38494 24.85700 36883 ft 479 kts 130°
2026-04-07 14:41 6.34050 24.90683 36883 ft 479 kts 130°
2026-04-07 14:42 6.29598 24.95673 36885 ft 479 kts 130°
2026-04-07 14:42 6.25174 25.00631 36887 ft 479 kts 130°
2026-04-07 14:43 6.20726 25.05615 36884 ft 478 kts 130°
2026-04-07 14:43 6.16288 25.10585 36879 ft 477 kts 130°
2026-04-07 14:44 6.11848 25.15558 36881 ft 477 kts 130°
2026-04-07 14:44 6.07414 25.20521 36881 ft 477 kts 130°
2026-04-07 14:45 6.02978 25.25486 36886 ft 477 kts 130°
2026-04-07 14:45 5.98545 25.30445 36884 ft 477 kts 130°
2026-04-07 14:46 5.94133 25.35379 36885 ft 477 kts 130°
2026-04-07 14:46 5.89697 25.40341 36886 ft 477 kts 130°
2026-04-07 14:47 5.85264 25.45296 36887 ft 477 kts 130°
2026-04-07 14:47 5.81577 25.49417 36885 ft 477 kts 130°
2026-04-07 14:48 5.76419 25.55181 36890 ft 477 kts 130°
2026-04-07 14:48 5.72708 25.59326 36889 ft 477 kts 130°
2026-04-07 14:49 5.68297 25.64252 36891 ft 477 kts 130°
2026-04-07 14:49 5.63856 25.69212 36890 ft 477 kts 130°
2026-04-07 14:50 5.59409 25.74176 36886 ft 477 kts 130°
2026-04-07 14:50 5.54965 25.79135 36887 ft 477 kts 130°
2026-04-07 14:51 5.50550 25.84062 36886 ft 477 kts 130°
2026-04-07 14:51 5.46095 25.89032 36893 ft 477 kts 130°
2026-04-07 14:52 5.41653 25.93986 36893 ft 476 kts 130°
2026-04-07 14:52 5.37247 25.98899 36891 ft 476 kts 130°
2026-04-07 14:53 5.32817 26.03837 36888 ft 475 kts 130°
2026-04-07 14:53 5.28390 26.08770 36888 ft 475 kts 130°
2026-04-07 14:54 5.23960 26.13710 36891 ft 475 kts 130°
2026-04-07 14:54 5.19568 26.18621 36891 ft 475 kts 130°
2026-04-07 14:55 5.15150 26.23563 36892 ft 475 kts 130°
2026-04-07 14:55 5.10728 26.28507 36894 ft 475 kts 130°
2026-04-07 14:56 5.06321 26.33432 36895 ft 476 kts 130°
2026-04-07 14:56 5.01892 26.38380 36899 ft 476 kts 130°
2026-04-07 14:57 4.97459 26.43332 36896 ft 476 kts 130°
2026-04-07 14:57 4.93028 26.48280 36894 ft 476 kts 130°
2026-04-07 14:58 4.88631 26.53190 36894 ft 476 kts 130°
2026-04-07 14:58 4.84196 26.58141 36893 ft 476 kts 130°
2026-04-07 14:59 4.79768 26.63083 36893 ft 476 kts 130°
2026-04-07 14:59 4.75339 26.68025 36895 ft 475 kts 130°
2026-04-07 15:00 4.70918 26.72956 36894 ft 475 kts 130°
2026-04-07 15:00 4.66535 26.77845 36896 ft 474 kts 130°
2026-04-07 15:01 4.62111 26.82778 36894 ft 474 kts 130°
2026-04-07 15:01 4.57695 26.87702 36895 ft 474 kts 130°
2026-04-07 15:02 4.53309 26.92591 36894 ft 474 kts 130°
2026-04-07 15:02 4.48899 26.97507 36894 ft 473 kts 130°
2026-04-07 15:03 4.44492 27.02416 36898 ft 473 kts 130°
2026-04-07 15:03 4.40080 27.07332 36895 ft 473 kts 130°
2026-04-07 15:04 4.35696 27.12215 36898 ft 473 kts 130°
2026-04-07 15:04 4.31288 27.17124 36897 ft 473 kts 130°
2026-04-07 15:05 4.26879 27.22034 36897 ft 473 kts 131°
2026-04-07 15:05 4.22466 27.26946 36897 ft 473 kts 131°
2026-04-07 15:06 4.18088 27.31819 36900 ft 473 kts 131°
2026-04-07 15:06 4.13679 27.36725 36899 ft 473 kts 131°
2026-04-07 15:07 4.09274 27.41626 36899 ft 473 kts 131°
2026-04-07 15:07 4.04865 27.46531 36899 ft 473 kts 131°
2026-04-07 15:08 4.00499 27.51387 36897 ft 471 kts 131°
2026-04-07 15:08 3.96109 27.56269 36897 ft 470 kts 131°
2026-04-07 15:09 3.91723 27.61145 36898 ft 470 kts 131°
2026-04-07 15:09 3.87339 27.66018 36897 ft 471 kts 131°
2026-04-07 15:10 3.82984 27.70858 36897 ft 471 kts 131°
2026-04-07 15:10 3.78597 27.75734 36897 ft 470 kts 131°
2026-04-07 15:11 3.74209 27.80609 36897 ft 470 kts 131°
2026-04-07 15:11 3.69827 27.85478 36898 ft 471 kts 131°
2026-04-07 15:12 3.65430 27.90362 36899 ft 472 kts 131°
2026-04-07 15:12 3.61058 27.95216 36903 ft 473 kts 131°
2026-04-07 15:13 3.56653 28.00107 36901 ft 472 kts 131°
2026-04-07 15:13 3.52243 28.05004 36901 ft 472 kts 131°
2026-04-07 15:14 3.47840 28.09890 36898 ft 472 kts 131°
2026-04-07 15:14 3.43445 28.14769 36901 ft 471 kts 131°
2026-04-07 15:15 3.39082 28.19610 36905 ft 471 kts 131°
2026-04-07 15:15 3.34686 28.24488 36904 ft 471 kts 131°
2026-04-07 15:16 3.30300 28.29354 36905 ft 470 kts 131°
2026-04-07 15:16 3.25947 28.34183 36908 ft 470 kts 131°
2026-04-07 15:17 3.21571 28.39036 36908 ft 470 kts 131°
2026-04-07 15:17 3.17188 28.43897 36908 ft 470 kts 131°
2026-04-07 15:18 3.12801 28.48761 36910 ft 470 kts 131°
2026-04-07 15:18 3.08419 28.53619 36915 ft 470 kts 131°
2026-04-07 15:19 3.04064 28.58446 36914 ft 470 kts 131°
2026-04-07 15:19 2.99678 28.63307 36913 ft 470 kts 131°
2026-04-07 15:20 2.95296 28.68164 36916 ft 470 kts 131°
2026-04-07 15:20 2.90910 28.73023 36918 ft 470 kts 131°
2026-04-07 15:21 2.86555 28.77849 36920 ft 470 kts 131°
2026-04-07 15:21 2.82175 28.82702 36927 ft 469 kts 131°
2026-04-07 15:22 2.77794 28.87557 36925 ft 470 kts 131°
2026-04-07 15:22 2.73414 28.92408 36927 ft 470 kts 131°
2026-04-07 15:23 2.69060 28.97231 36931 ft 470 kts 132°
2026-04-07 15:23 2.64677 29.02086 36937 ft 469 kts 132°
2026-04-07 15:24 2.60301 29.06932 36939 ft 468 kts 132°
2026-04-07 15:24 2.55961 29.11737 36938 ft 468 kts 132°
2026-04-07 15:25 2.51586 29.16581 36943 ft 468 kts 132°
2026-04-07 15:25 2.47218 29.21416 36948 ft 468 kts 132°
2026-04-07 15:26 2.42875 29.26223 36950 ft 468 kts 132°
2026-04-07 15:26 2.38491 29.31076 36951 ft 469 kts 132°
2026-04-07 15:27 2.34111 29.35923 36953 ft 470 kts 132°
2026-04-07 15:27 2.29722 29.40780 36960 ft 469 kts 132°
2026-04-07 15:28 2.25380 29.45585 36957 ft 468 kts 132°
2026-04-07 15:28 2.21016 29.50415 36961 ft 468 kts 132°
2026-04-07 15:29 2.16648 29.55259 36962 ft 468 kts 132°
2026-04-07 15:29 2.12310 29.60072 36966 ft 469 kts 132°
2026-04-07 15:30 2.07941 29.64917 36971 ft 469 kts 132°
2026-04-07 15:30 2.03565 29.69770 36967 ft 469 kts 132°
2026-04-07 15:31 1.99195 29.74619 36973 ft 469 kts 132°
2026-04-07 15:31 1.94863 29.79434 36964 ft 468 kts 132°
2026-04-07 15:32 1.90523 29.84279 36976 ft 467 kts 131°
2026-04-07 15:32 1.86231 29.89157 36979 ft 467 kts 131°
2026-04-07 15:33 1.81954 29.94046 36966 ft 467 kts 131°
2026-04-07 15:33 1.77669 29.98937 36974 ft 467 kts 131°
2026-04-07 15:34 1.73386 30.03816 36973 ft 467 kts 131°
2026-04-07 15:34 1.69121 30.08674 36979 ft 467 kts 131°
2026-04-07 15:35 1.64829 30.13561 36979 ft 468 kts 131°
2026-04-07 15:35 1.61247 30.17640 36986 ft 470 kts 131°
2026-04-07 15:36 1.56543 30.22154 36984 ft 470 kts 143°
2026-04-07 15:36 1.52807 30.24344 36998 ft 471 kts 154°
2026-04-07 15:36 1.49815 30.25671 36980 ft 471 kts 156°
2026-04-07 15:37 1.44701 30.27717 36969 ft 472 kts 158°
2026-04-07 15:37 1.38601 30.30053 36961 ft 472 kts 158°
2026-04-07 15:38 1.32461 30.32420 36966 ft 472 kts 158°
2026-04-07 15:38 1.26336 30.34812 36960 ft 472 kts 157°
2026-04-07 15:39 1.20247 30.37202 36960 ft 472 kts 157°
2026-04-07 15:39 1.14122 30.39607 36983 ft 472 kts 157°
2026-04-07 15:40 1.07996 30.42011 36979 ft 473 kts 157°
2026-04-07 15:40 1.01849 30.44422 36987 ft 474 kts 157°
2026-04-07 15:41 0.95747 30.46816 36982 ft 474 kts 157°
2026-04-07 15:41 0.89585 30.49233 37001 ft 476 kts 157°
2026-04-07 15:42 0.83416 30.51652 37010 ft 476 kts 157°
2026-04-07 15:42 0.74069 30.54921 37019 ft 477 kts 167°
2026-04-07 15:43 0.67464 30.55766 37021 ft 479 kts 173°
2026-04-07 15:43 0.60811 30.56364 37008 ft 479 kts 173°
2026-04-07 15:44 0.54148 30.56950 37006 ft 480 kts 173°
2026-04-07 15:44 0.47538 30.57530 36976 ft 480 kts 173°
2026-04-07 15:45 0.40891 30.58114 36993 ft 479 kts 173°
2026-04-07 15:45 0.34227 30.58699 36994 ft 480 kts 173°
2026-04-07 15:46 0.27573 30.59283 36996 ft 479 kts 173°
2026-04-07 15:46 0.20978 30.59862 37022 ft 478 kts 173°
2026-04-07 15:47 0.14331 30.60446 37020 ft 478 kts 173°
2026-04-07 15:47 0.07694 30.61029 37030 ft 478 kts 173°
2026-04-07 15:48 0.01060 30.61611 37038 ft 478 kts 173°
2026-04-07 15:48 -0.05565 30.62193 37054 ft 476 kts 173°
2026-04-07 15:49 -0.12118 30.62768 37057 ft 475 kts 173°
2026-04-07 15:49 -0.18712 30.63347 37047 ft 475 kts 173°
2026-04-07 15:50 -0.25301 30.63926 37054 ft 475 kts 173°
2026-04-07 15:50 -0.31846 30.64501 37068 ft 475 kts 173°
2026-04-07 15:51 -0.38434 30.65079 37066 ft 475 kts 173°
2026-04-07 15:51 -0.45028 30.65658 37081 ft 475 kts 173°
2026-04-07 15:52 -0.51616 30.66237 37079 ft 475 kts 173°
2026-04-07 15:52 -0.58163 30.66812 37092 ft 475 kts 173°
2026-04-07 15:53 -0.64751 30.67390 37090 ft 475 kts 173°
2026-04-07 15:53 -0.71333 30.67968 37102 ft 474 kts 173°
2026-04-07 15:54 -0.77901 30.68544 37106 ft 473 kts 173°
2026-04-07 15:54 -0.84430 30.69118 37111 ft 473 kts 173°
2026-04-07 15:55 -0.91000 30.69696 37112 ft 473 kts 173°
2026-04-07 15:55 -0.97573 30.70273 37120 ft 473 kts 173°
2026-04-07 15:56 -1.04134 30.70849 37120 ft 472 kts 173°
2026-04-07 15:56 -1.10631 30.71419 37129 ft 471 kts 173°
2026-04-07 15:57 -1.17155 30.71992 37126 ft 471 kts 173°
2026-04-07 15:57 -1.23687 30.72566 37139 ft 471 kts 173°
2026-04-07 15:58 -1.30213 30.73140 37139 ft 471 kts 173°
2026-04-07 15:58 -1.36751 30.73706 37142 ft 471 kts 175°
2026-04-07 15:59 -1.40022 30.73602 37140 ft 473 kts 188°
2026-04-07 15:59 -1.43173 30.72646 37145 ft 476 kts 204°
2026-04-07 15:59 -1.45967 30.70849 37159 ft 481 kts 219°
2026-04-07 15:59 -1.48168 30.68376 37156 ft 486 kts 234°
2026-04-07 16:00 -1.49718 30.65355 37158 ft 491 kts 245°
2026-04-07 16:00 -1.50988 30.62173 37158 ft 493 kts 246°
2026-04-07 16:00 -1.53595 30.55813 37158 ft 494 kts 244°
2026-04-07 16:01 -1.56332 30.49512 37168 ft 494 kts 243°
2026-04-07 16:01 -1.59093 30.43290 37176 ft 493 kts 243°
2026-04-07 16:02 -1.61882 30.37043 36663 ft 488 kts 244°
2026-04-07 16:02 -1.63057 30.34417 36047 ft 487 kts 244°
2026-04-07 16:02 -1.64434 30.31339 34966 ft 484 kts 244°
2026-04-07 16:03 -1.65812 30.28259 33582 ft 487 kts 244°
2026-04-07 16:03 -1.67204 30.25151 31936 ft 491 kts 244°
2026-04-07 16:03 -1.68608 30.22013 30268 ft 496 kts 244°
2026-04-07 16:03 -1.70007 30.18887 28449 ft 500 kts 244°
2026-04-07 16:04 -1.71419 30.15732 27023 ft 494 kts 244°
2026-04-07 16:04 -1.72805 30.12632 26019 ft 480 kts 245°
2026-04-07 16:04 -1.74127 30.09672 25893 ft 447 kts 244°
2026-04-07 16:04 -1.75348 30.06934 25914 ft 415 kts 244°
2026-04-07 16:05 -1.76483 30.04392 25924 ft 386 kts 244°
2026-04-07 16:05 -1.77542 30.02022 25937 ft 360 kts 244°
2026-04-07 16:05 -1.78519 29.99836 25958 ft 337 kts 244°
2026-04-07 16:05 -1.79444 29.97767 25964 ft 315 kts 243°
2026-04-07 16:06 -1.80314 29.95821 25842 ft 300 kts 243°
2026-04-07 16:06 -1.81186 29.93882 24985 ft 314 kts 244°
2026-04-07 16:06 -1.82250 29.91926 24141 ft 323 kts 229°
2026-04-07 16:06 -1.84019 29.90538 23336 ft 330 kts 201°
2026-04-07 16:07 -1.86222 29.89958 22756 ft 334 kts 188°
2026-04-07 16:07 -1.88516 29.89593 22395 ft 332 kts 187°
2026-04-07 16:07 -1.90787 29.89247 22020 ft 331 kts 187°
2026-04-07 16:07 -1.93055 29.88837 21725 ft 330 kts 193°
2026-04-07 16:08 -1.95166 29.87944 21475 ft 331 kts 212°
2026-04-07 16:08 -1.96835 29.86364 21238 ft 334 kts 233°
2026-04-07 16:08 -1.97775 29.84235 20996 ft 337 kts 257°
2026-04-07 16:08 -1.97814 29.81903 20759 ft 339 kts 281°
2026-04-07 16:09 -1.96968 29.79750 20528 ft 337 kts 303°
2026-04-07 16:09 -1.95362 29.78083 20304 ft 333 kts 328°
2026-04-07 16:09 -1.93215 29.77277 20067 ft 330 kts 354°
2026-04-07 16:09 -1.90935 29.77328 19831 ft 328 kts 10°
2026-04-07 16:10 -1.88685 29.77729 19611 ft 328 kts 12°
2026-04-07 16:10 -1.86441 29.78132 19380 ft 327 kts 12°
2026-04-07 16:10 -1.84208 29.78531 19161 ft 324 kts 12°
2026-04-07 16:10 -1.82008 29.78969 18859 ft 321 kts 18°
2026-04-07 16:11 -1.79996 29.79814 18214 ft 317 kts 35°
2026-04-07 16:11 -1.78363 29.81282 17340 ft 317 kts 53°
2026-04-07 16:11 -1.77346 29.83211 16502 ft 315 kts 75°
2026-04-07 16:11 -1.77122 29.85377 15651 ft 315 kts 96°
2026-04-07 16:12 -1.77771 29.87447 15004 ft 311 kts 120°
2026-04-07 16:12 -1.79154 29.89046 14611 ft 300 kts 141°
2026-04-07 16:12 -1.80927 29.90041 14088 ft 296 kts 159°
2026-04-07 16:12 -1.82943 29.90455 13341 ft 299 kts 176°
2026-04-07 16:13 -1.85035 29.90281 12546 ft 303 kts 187°
2026-04-07 16:13 -1.87097 29.89931 12117 ft 293 kts 187°
2026-04-07 16:13 -1.89054 29.89595 11873 ft 277 kts 186°
2026-04-07 16:13 -1.90927 29.89294 11649 ft 270 kts 186°
2026-04-07 16:14 -1.92781 29.89044 11468 ft 266 kts 180°
2026-04-07 16:14 -1.94559 29.89295 11356 ft 254 kts 156°
2026-04-07 16:14 -1.95952 29.90246 11224 ft 241 kts 129°
2026-04-07 16:14 -1.96744 29.91656 10911 ft 230 kts 104°
2026-04-07 16:15 -1.96841 29.93219 10643 ft 219 kts 82°
2026-04-07 16:15 -1.96547 29.94656 10512 ft 203 kts 77°
2026-04-07 16:15 -1.96205 29.95995 10312 ft 195 kts 77°
2026-04-07 16:15 -1.95871 29.97288 9995 ft 190 kts 76°
2026-04-07 16:16 -1.95540 29.98592 9356 ft 199 kts 77°
2026-04-07 16:16 -1.95195 29.99977 8629 ft 210 kts 76°
2026-04-07 16:16 -1.94893 30.01398 8170 ft 205 kts 83°
2026-04-07 16:16 -1.94916 30.02771 7792 ft 196 kts 96°
2026-04-07 16:17 -1.95118 30.04094 7436 ft 188 kts 99°
2026-04-07 16:17 -1.95355 30.05378 6974 ft 189 kts 99°
2026-04-07 16:17 -1.95619 30.06667 6459 ft 190 kts 101°
2026-04-07 16:17 -1.95844 30.07958 5996 ft 186 kts 98°
2026-04-07 16:18 -1.96045 30.09203 5675 ft 176 kts 100°
2026-04-07 16:18 -1.96253 30.10384 5375 ft 169 kts 99°
2026-04-07 16:18 -1.96441 30.11505 5121 ft 158 kts 101°
2026-04-07 16:18 -1.96615 30.12545 4915 ft 148 kts 101°
2026-04-07 16:19 -1.96781 30.13454 4888 ft 105 kts 99°
2026-04-07 16:19 -1.96864 30.13924 4885 ft 52 kts 100°
2026-04-07 16:19 -1.96904 30.14153 4883 ft 25 kts 100°
2026-04-07 16:19 -1.96177 30.09937 5496 ft 172 kts 101°
2026-04-07 16:20 -1.96374 30.11118 5218 ft 162 kts 101°
2026-04-07 16:20 -1.96539 30.12084 4994 ft 153 kts 101°
2026-04-07 16:20 -1.96805 30.13594 4887 ft 86 kts 100°
2026-04-07 16:20 -1.96639 30.12672 4897 ft 136 kts 101°
2026-04-07 16:21 -1.96684 30.12910 4887 ft 141 kts 101°
2026-04-07 16:21 -1.96829 30.13726 4892 ft 64 kts 100°
2026-04-07 16:22 -1.96902 30.14139 4883 ft 28 kts 100°
2026-04-07 16:22 -1.96934 30.14329 4882 ft 28 kts 99°
2026-04-07 16:22 -1.96968 30.14525 4881 ft 29 kts 100°
2026-04-07 16:22 -1.97002 30.14718 4885 ft 27 kts 100°
2026-04-07 16:23 -1.97036 30.14905 4884 ft 27 kts 100°
2026-04-07 16:23 -1.97058 30.15029 4884 ft 27 kts 100°
2026-04-07 16:23 -1.97101 30.15276 4886 ft 27 kts 98°
2026-04-07 16:23 -1.97097 30.15413 4887 ft 14 kts 68°
2026-04-07 16:24 -1.97093 30.15461 4884 ft 8 kts 112°
2026-04-07 16:24 -1.97122 30.15469 4883 ft 0 kts 198°
2026-04-07 16:24 -1.97123 30.15468 4883 ft 1 kts 200°
2026-04-07 16:25 -1.97129 30.15464 4884 ft 1 kts 213°
2026-04-07 16:25 -1.97131 30.15461 4880 ft 3 kts 226°
2026-04-07 16:25 -1.97119 30.15383 4883 ft 19 kts 281°
2026-04-07 16:25 -1.97094 30.15251 4882 ft 19 kts 281°
2026-04-07 16:26 -1.97071 30.15116 4884 ft 20 kts 279°
2026-04-07 16:26 -1.97046 30.14974 4882 ft 21 kts 279°
2026-04-07 16:26 -1.97022 30.14831 4885 ft 21 kts 279°
2026-04-07 16:26 -1.96998 30.14685 4882 ft 22 kts 279°
2026-04-07 16:27 -1.96968 30.14534 4882 ft 23 kts 280°
2026-04-07 16:27 -1.96941 30.14380 4883 ft 22 kts 280°
2026-04-07 16:27 -1.96916 30.14236 4888 ft 21 kts 279°
2026-04-07 16:27 -1.96891 30.14091 4882 ft 21 kts 279°
2026-04-07 16:28 -1.96867 30.13948 4887 ft 20 kts 280°
2026-04-07 16:28 -1.96843 30.13816 4889 ft 19 kts 280°
2026-04-07 16:28 -1.96820 30.13689 4891 ft 19 kts 280°
2026-04-07 16:28 -1.96796 30.13559 4889 ft 19 kts 280°
2026-04-07 16:29 -1.96773 30.13427 4891 ft 19 kts 280°
2026-04-07 16:29 -1.96737 30.13357 4885 ft 8 kts 339°
2026-04-07 16:29 -1.96683 30.13360 4890 ft 8 kts
2026-04-07 16:29 -1.96633 30.13370 4885 ft 6 kts 20°
2026-04-07 16:30 -1.96610 30.13389 4888 ft 5 kts 52°
2026-04-07 16:30 -1.96607 30.13435 4889 ft 9 kts 101°
2026-04-07 16:30 -1.96595 30.13491 4891 ft 9 kts 39°
2026-04-07 16:30 -1.96540 30.13523 4887 ft 9 kts 46°
2026-04-07 16:31 -1.96502 30.13574 4886 ft 10 kts 54°
2026-04-07 16:31 -1.96479 30.13606 4888 ft 4 kts 54°
2026-04-07 16:31 -1.96475 30.13611 4886 ft 0 kts 54°